createdAt,value
2022-09-26T00:00:09.210Z,99.99
2022-09-26T00:01:09.319Z,99.99
2022-09-26T00:02:09.206Z,99.99
2022-09-26T00:03:09.155Z,99.99
2022-09-26T00:04:09.157Z,99.99
2022-09-26T00:05:09.130Z,99.99
2022-09-26T00:06:09.131Z,99.99
2022-09-26T00:07:09.111Z,99.99
2022-09-26T00:08:09.091Z,99.99
2022-09-26T00:09:09.125Z,99.99
2022-09-26T00:10:09.079Z,99.99
2022-09-26T00:11:09.093Z,99.99
2022-09-26T00:12:09.050Z,99.99
2022-09-26T00:13:09.038Z,99.99
2022-09-26T00:14:09.029Z,99.99
2022-09-26T00:15:09.011Z,99.99
2022-09-26T00:16:08.986Z,99.99
2022-09-26T00:17:09.069Z,99.99
2022-09-26T00:18:08.974Z,99.99
2022-09-26T00:19:09.021Z,99.99
2022-09-26T00:20:14.941Z,99.99
2022-09-26T00:21:09.134Z,99.99
2022-09-26T00:22:09.119Z,99.99
2022-09-26T00:23:09.103Z,99.99
2022-09-26T00:24:09.099Z,99.99
2022-09-26T00:25:08.879Z,99.99
2022-09-26T00:26:08.865Z,99.99
2022-09-26T00:27:08.873Z,99.99
2022-09-26T00:28:09.049Z,99.99
2022-09-26T00:29:09.106Z,99.99
2022-09-26T00:30:08.819Z,99.99
2022-09-26T00:31:08.908Z,99.99
2022-09-26T00:32:08.802Z,99.99
2022-09-26T00:33:08.778Z,99.99
2022-09-26T00:34:08.841Z,99.80
2022-09-26T00:35:08.742Z,99.80
2022-09-26T00:36:08.728Z,99.91
2022-09-26T00:37:08.725Z,99.99
2022-09-26T00:38:08.721Z,99.99
2022-09-26T00:39:08.803Z,99.99
2022-09-26T00:40:08.689Z,99.99
2022-09-26T00:41:08.672Z,99.99
2022-09-26T00:42:08.683Z,99.99
2022-09-26T00:43:08.787Z,99.99
2022-09-26T00:44:08.654Z,99.99
2022-09-26T00:45:08.649Z,99.99
2022-09-26T00:46:08.685Z,99.99
2022-09-26T00:47:08.664Z,99.99
2022-09-26T00:48:08.602Z,99.99
2022-09-26T00:49:08.626Z,99.99
2022-09-26T00:50:08.581Z,99.99
2022-09-26T00:51:08.536Z,99.99
2022-09-26T00:52:08.522Z,99.99
2022-09-26T00:53:08.511Z,99.99
2022-09-26T00:54:08.516Z,99.99
2022-09-26T00:55:08.480Z,99.99
2022-09-26T00:56:08.501Z,99.99
2022-09-26T00:57:08.468Z,99.99
2022-09-26T00:58:08.476Z,99.99
2022-09-26T00:59:08.598Z,99.99
2022-09-26T01:00:08.488Z,99.99
2022-09-26T01:01:08.616Z,99.99
2022-09-26T01:02:08.516Z,99.99
2022-09-26T01:03:08.381Z,99.99
2022-09-26T01:04:08.362Z,99.99
2022-09-26T01:05:08.382Z,99.99
2022-09-26T01:06:08.348Z,99.99
2022-09-26T01:07:08.356Z,99.99
2022-09-26T01:08:08.315Z,99.91
2022-09-26T01:09:08.323Z,99.60
2022-09-26T01:10:08.367Z,99.60
2022-09-26T01:11:08.272Z,99.60
2022-09-26T01:12:08.252Z,99.50
2022-09-26T01:13:08.239Z,99.50
2022-09-26T01:14:08.266Z,99.70
2022-09-26T01:15:08.324Z,99.70
2022-09-26T01:16:08.272Z,99.70
2022-09-26T01:17:08.249Z,99.50
2022-09-26T01:18:08.190Z,99.44
2022-09-26T01:19:08.230Z,99.44
2022-09-26T01:20:08.156Z,99.54
2022-09-26T01:21:08.144Z,99.75
2022-09-26T01:22:08.121Z,99.95
2022-09-26T01:23:08.105Z,99.99
2022-09-26T01:24:08.113Z,99.99
2022-09-26T01:25:08.082Z,99.99
2022-09-26T01:26:08.078Z,99.99
2022-09-26T01:27:08.064Z,99.99
2022-09-26T01:28:08.040Z,99.99
2022-09-26T01:29:08.173Z,99.99
2022-09-26T01:30:08.018Z,99.99
2022-09-26T01:31:08.118Z,99.99
2022-09-26T01:32:07.995Z,99.99
2022-09-26T01:33:07.980Z,99.99
2022-09-26T01:34:07.970Z,99.99
2022-09-26T01:35:07.954Z,99.99
2022-09-26T01:36:07.938Z,99.99
2022-09-26T01:37:07.934Z,99.99
2022-09-26T01:38:07.908Z,99.99
2022-09-26T01:39:07.903Z,99.99
2022-09-26T01:40:07.881Z,99.99
2022-09-26T01:41:07.878Z,99.99
2022-09-26T01:42:07.863Z,99.99
2022-09-26T01:43:07.847Z,99.99
2022-09-26T01:44:07.845Z,99.99
2022-09-26T01:45:07.822Z,99.99
2022-09-26T01:46:07.891Z,99.99
2022-09-26T01:47:07.816Z,99.99
2022-09-26T01:48:07.797Z,99.99
2022-09-26T01:49:07.775Z,99.99
2022-09-26T01:50:07.769Z,99.99
2022-09-26T01:51:07.746Z,99.99
2022-09-26T01:52:07.768Z,99.99
2022-09-26T01:53:07.723Z,99.99
2022-09-26T01:54:07.710Z,99.99
2022-09-26T01:55:07.723Z,99.99
2022-09-26T01:56:07.710Z,99.99
2022-09-26T01:57:07.679Z,99.99
2022-09-26T01:58:07.657Z,99.99
2022-09-26T01:59:07.645Z,99.99
2022-09-26T02:00:07.636Z,99.99
2022-09-26T02:01:07.730Z,99.99
2022-09-26T02:02:07.724Z,99.99
2022-09-26T02:03:07.706Z,99.99
2022-09-26T02:04:07.584Z,99.99
2022-09-26T02:05:07.566Z,99.99
2022-09-26T02:06:07.544Z,99.99
2022-09-26T02:07:07.542Z,99.99
2022-09-26T02:08:07.517Z,99.99
2022-09-26T02:09:07.511Z,99.99
2022-09-26T02:10:07.496Z,99.99
2022-09-26T02:11:07.488Z,99.99
2022-09-26T02:12:07.477Z,99.99
2022-09-26T02:13:07.453Z,99.99
2022-09-26T02:14:07.455Z,99.99
2022-09-26T02:15:07.428Z,99.99
2022-09-26T02:16:07.466Z,99.99
2022-09-26T02:17:07.404Z,99.99
2022-09-26T02:18:07.385Z,99.99
2022-09-26T02:19:07.400Z,99.99
2022-09-26T02:20:07.365Z,99.99
2022-09-26T02:21:07.352Z,99.99
2022-09-26T02:22:07.341Z,99.99
2022-09-26T02:23:07.326Z,99.99
2022-09-26T02:24:07.324Z,99.99
2022-09-26T02:25:07.306Z,99.99
2022-09-26T02:26:07.312Z,99.99
2022-09-26T02:27:07.269Z,99.99
2022-09-26T02:28:07.268Z,99.99
2022-09-26T02:29:07.270Z,99.99
2022-09-26T02:30:07.234Z,99.99
2022-09-26T02:31:07.241Z,99.99
2022-09-26T02:32:07.351Z,99.99
2022-09-26T02:33:07.200Z,99.99
2022-09-26T02:34:07.194Z,99.99
2022-09-26T02:35:07.223Z,99.99
2022-09-26T02:36:07.182Z,99.99
2022-09-26T02:37:07.166Z,99.99
2022-09-26T02:38:07.123Z,99.99
2022-09-26T02:39:07.129Z,99.99
2022-09-26T02:40:07.177Z,99.99
2022-09-26T02:41:07.118Z,99.99
2022-09-26T02:42:07.080Z,99.99
2022-09-26T02:43:07.066Z,99.99
2022-09-26T02:44:07.064Z,99.99
2022-09-26T02:45:07.041Z,99.99
2022-09-26T02:46:07.155Z,99.99
2022-09-26T02:47:07.018Z,99.99
2022-09-26T02:48:07.001Z,99.99
2022-09-26T02:49:06.988Z,99.99
2022-09-26T02:50:06.979Z,99.99
2022-09-26T02:51:06.989Z,99.99
2022-09-26T02:52:06.947Z,99.99
2022-09-26T02:53:06.937Z,99.99
2022-09-26T02:54:06.925Z,99.99
2022-09-26T02:55:06.909Z,99.99
2022-09-26T02:56:06.899Z,99.99
2022-09-26T02:57:06.882Z,99.99
2022-09-26T02:58:06.880Z,99.99
2022-09-26T02:59:06.852Z,99.99
2022-09-26T03:00:06.863Z,99.99
2022-09-26T03:01:06.867Z,99.99
2022-09-26T03:02:06.817Z,99.99
2022-09-26T03:03:06.806Z,99.99
2022-09-26T03:04:06.791Z,99.99
2022-09-26T03:05:06.833Z,99.99
2022-09-26T03:06:06.778Z,99.99
2022-09-26T03:07:06.775Z,99.99
2022-09-26T03:08:06.737Z,99.99
2022-09-26T03:09:06.800Z,99.99
2022-09-26T03:10:06.710Z,99.99
2022-09-26T03:11:06.699Z,99.99
2022-09-26T03:12:06.682Z,99.99
2022-09-26T03:13:06.671Z,99.99
2022-09-26T03:14:06.656Z,99.99
2022-09-26T03:15:06.647Z,99.99
2022-09-26T03:16:06.676Z,99.99
2022-09-26T03:17:06.619Z,99.99
2022-09-26T03:18:06.605Z,99.99
2022-09-26T03:19:06.665Z,99.99
2022-09-26T03:20:06.576Z,99.99
2022-09-26T03:21:06.568Z,99.99
2022-09-26T03:22:06.552Z,99.99
2022-09-26T03:23:06.561Z,99.99
2022-09-26T03:24:06.530Z,99.99
2022-09-26T03:25:06.517Z,99.99
2022-09-26T03:26:06.501Z,99.99
2022-09-26T03:27:06.491Z,99.99
2022-09-26T03:28:06.477Z,99.99
2022-09-26T03:29:06.522Z,99.99
2022-09-26T03:30:06.447Z,99.99
2022-09-26T03:31:06.431Z,99.99
2022-09-26T03:32:06.569Z,99.99
2022-09-26T03:33:06.412Z,99.99
2022-09-26T03:34:06.398Z,99.99
2022-09-26T03:35:06.389Z,99.99
2022-09-26T03:36:06.371Z,99.99
2022-09-26T03:37:06.352Z,99.99
2022-09-26T03:38:08.319Z,99.99
2022-09-26T03:39:06.428Z,99.99
2022-09-26T03:40:06.315Z,99.99
2022-09-26T03:41:06.303Z,99.99
2022-09-26T03:42:06.285Z,99.99
2022-09-26T03:43:06.280Z,99.99
2022-09-26T03:44:06.261Z,99.99
2022-09-26T03:45:06.251Z,99.99
2022-09-26T03:46:06.405Z,99.99
2022-09-26T03:47:06.227Z,99.99
2022-09-26T03:48:06.212Z,99.99
2022-09-26T03:49:06.255Z,99.99
2022-09-26T03:50:06.188Z,99.99
2022-09-26T03:51:06.177Z,99.99
2022-09-26T03:52:06.158Z,99.99
2022-09-26T03:53:06.144Z,99.99
2022-09-26T03:54:06.137Z,99.99
2022-09-26T03:55:06.144Z,99.99
2022-09-26T03:56:06.113Z,99.99
2022-09-26T03:57:06.097Z,99.99
2022-09-26T03:58:06.085Z,99.99
2022-09-26T03:59:06.110Z,99.99
2022-09-26T04:00:06.053Z,99.99
2022-09-26T04:01:06.135Z,99.99
2022-09-26T04:02:06.078Z,99.99
2022-09-26T04:03:06.018Z,99.99
2022-09-26T04:04:06.001Z,99.99
2022-09-26T04:05:05.991Z,99.99
2022-09-26T04:06:05.976Z,99.99
2022-09-26T04:07:05.959Z,99.99
2022-09-26T04:08:05.957Z,99.99
2022-09-26T04:09:05.986Z,99.99
2022-09-26T04:10:05.928Z,99.99
2022-09-26T04:11:05.934Z,99.99
2022-09-26T04:12:05.895Z,99.99
2022-09-26T04:13:05.886Z,99.99
2022-09-26T04:14:05.872Z,99.99
2022-09-26T04:15:05.855Z,99.99
2022-09-26T04:16:05.932Z,99.79
2022-09-26T04:17:05.828Z,99.90
2022-09-26T04:18:05.827Z,99.99
2022-09-26T04:19:05.862Z,99.99
2022-09-26T04:20:05.793Z,99.99
2022-09-26T04:21:09.878Z,99.99
2022-09-26T04:22:05.768Z,99.99
2022-09-26T04:23:05.749Z,99.99
2022-09-26T04:24:05.740Z,99.99
2022-09-26T04:25:05.731Z,99.99
2022-09-26T04:26:05.713Z,99.99
2022-09-26T04:27:05.724Z,99.99
2022-09-26T04:28:05.682Z,99.99
2022-09-26T04:29:05.758Z,99.99
2022-09-26T04:30:05.669Z,99.99
2022-09-26T04:31:05.701Z,99.99
2022-09-26T04:32:05.719Z,99.99
2022-09-26T04:33:05.616Z,99.99
2022-09-26T04:34:05.604Z,99.99
2022-09-26T04:35:05.591Z,99.99
2022-09-26T04:36:05.582Z,99.99
2022-09-26T04:37:05.562Z,99.99
2022-09-26T04:38:05.562Z,99.99
2022-09-26T04:39:05.656Z,99.99
2022-09-26T04:40:05.527Z,99.99
2022-09-26T04:41:05.617Z,99.99
2022-09-26T04:42:05.504Z,99.99
2022-09-26T04:43:05.507Z,99.99
2022-09-26T04:44:05.472Z,99.99
2022-09-26T04:45:05.458Z,99.99
2022-09-26T04:46:05.537Z,99.99
2022-09-26T04:47:05.433Z,99.99
2022-09-26T04:48:05.427Z,99.99
2022-09-26T04:49:05.404Z,99.99
2022-09-26T04:50:05.394Z,99.99
2022-09-26T04:51:05.481Z,99.99
2022-09-26T04:52:05.370Z,99.99
2022-09-26T04:53:05.350Z,99.99
2022-09-26T04:54:05.341Z,99.99
2022-09-26T04:55:05.330Z,99.99
2022-09-26T04:56:05.316Z,99.99
2022-09-26T04:57:05.303Z,99.99
2022-09-26T04:58:05.286Z,99.99
2022-09-26T04:59:05.317Z,99.99
2022-09-26T05:00:05.261Z,99.99
2022-09-26T05:01:05.338Z,99.99
2022-09-26T05:02:05.340Z,99.99
2022-09-26T05:03:05.230Z,99.99
2022-09-26T05:04:05.205Z,99.99
2022-09-26T05:05:05.200Z,99.99
2022-09-26T05:06:05.180Z,99.99
2022-09-26T05:07:05.180Z,99.99
2022-09-26T05:08:05.159Z,99.99
2022-09-26T05:09:05.152Z,99.99
2022-09-26T05:10:05.128Z,99.99
2022-09-26T05:11:05.116Z,99.99
2022-09-26T05:12:05.106Z,99.99
2022-09-26T05:13:05.094Z,99.99
2022-09-26T05:14:05.074Z,99.99
2022-09-26T05:15:05.095Z,99.99
2022-09-26T05:16:05.171Z,99.99
2022-09-26T05:17:05.037Z,99.99
2022-09-26T05:18:05.027Z,99.99
2022-09-26T05:19:05.215Z,99.99
2022-09-26T05:20:05.021Z,99.99
2022-09-26T05:21:04.985Z,99.99
2022-09-26T05:22:04.974Z,99.99
2022-09-26T05:23:04.962Z,99.99
2022-09-26T05:24:04.948Z,99.99
2022-09-26T05:25:04.934Z,99.99
2022-09-26T05:26:04.918Z,99.99
2022-09-26T05:27:04.907Z,99.99
2022-09-26T05:28:05.092Z,99.99
2022-09-26T05:29:08.754Z,99.99
2022-09-26T05:30:04.877Z,99.99
2022-09-26T05:31:04.932Z,99.99
2022-09-26T05:32:05.035Z,99.99
2022-09-26T05:33:04.830Z,99.99
2022-09-26T05:34:04.819Z,99.99
2022-09-26T05:35:04.805Z,99.99
2022-09-26T05:36:04.793Z,99.99
2022-09-26T05:37:04.773Z,99.99
2022-09-26T05:38:04.761Z,99.99
2022-09-26T05:39:04.751Z,99.99
2022-09-26T05:40:04.735Z,99.99
2022-09-26T05:41:04.811Z,99.99
2022-09-26T05:42:04.710Z,99.99
2022-09-26T05:43:04.698Z,99.99
2022-09-26T05:44:04.674Z,99.99
2022-09-26T05:45:04.671Z,99.99
2022-09-26T05:46:04.669Z,99.99
2022-09-26T05:47:04.766Z,99.99
2022-09-26T05:48:04.632Z,99.99
2022-09-26T05:49:04.615Z,99.99
2022-09-26T05:50:04.601Z,99.99
2022-09-26T05:51:04.596Z,99.99
2022-09-26T05:52:04.582Z,99.99
2022-09-26T05:53:04.563Z,99.99
2022-09-26T05:54:04.547Z,99.99
2022-09-26T05:55:04.537Z,99.99
2022-09-26T05:56:04.531Z,99.99
2022-09-26T05:57:04.511Z,99.99
2022-09-26T05:58:04.503Z,99.99
2022-09-26T05:59:04.486Z,99.99
2022-09-26T06:00:04.470Z,99.99
2022-09-26T06:01:04.509Z,99.99
2022-09-26T06:02:04.539Z,99.99
2022-09-26T06:03:04.656Z,99.99
2022-09-26T06:04:04.420Z,99.99
2022-09-26T06:05:04.406Z,99.99
2022-09-26T06:06:04.398Z,99.99
2022-09-26T06:07:04.384Z,99.99
2022-09-26T06:08:04.369Z,99.99
2022-09-26T06:09:04.358Z,99.99
2022-09-26T06:10:04.345Z,99.99
2022-09-26T06:11:04.325Z,99.99
2022-09-26T06:12:04.320Z,99.99
2022-09-26T06:13:04.310Z,99.99
2022-09-26T06:14:04.285Z,99.99
2022-09-26T06:15:04.287Z,99.99
2022-09-26T06:16:04.311Z,99.89
2022-09-26T06:17:04.253Z,99.89
2022-09-26T06:18:04.242Z,99.89
2022-09-26T06:19:04.252Z,99.68
2022-09-26T06:20:04.211Z,99.79
2022-09-26T06:21:04.199Z,99.99
2022-09-26T06:22:04.185Z,99.79
2022-09-26T06:23:04.173Z,99.38
2022-09-26T06:24:04.160Z,99.07
2022-09-26T06:25:04.157Z,99.17
2022-09-26T06:26:04.132Z,99.27
2022-09-26T06:27:04.116Z,99.27
2022-09-26T06:28:04.118Z,99.02
2022-09-26T06:29:04.096Z,99.02
2022-09-26T06:30:04.084Z,98.77
2022-09-26T06:31:04.070Z,95.95
2022-09-26T06:32:04.134Z,88.71
2022-09-26T06:33:04.044Z,81.86
2022-09-26T06:34:04.021Z,76.20
2022-09-26T06:35:04.048Z,72.08
2022-09-26T06:36:04.008Z,68.33
2022-09-26T06:37:03.999Z,66.13
2022-09-26T06:38:03.976Z,64.04
2022-09-26T06:39:03.956Z,64.81
2022-09-26T06:40:03.944Z,62.21
2022-09-26T06:41:04.092Z,60.91
2022-09-26T06:42:03.922Z,60.35
2022-09-26T06:43:03.908Z,57.01
2022-09-26T06:44:03.887Z,56.01
2022-09-26T06:45:03.885Z,55.91
2022-09-26T06:46:03.870Z,54.77
2022-09-26T06:47:03.978Z,54.12
2022-09-26T06:48:03.847Z,52.49
2022-09-26T06:49:03.820Z,52.69
2022-09-26T06:50:03.819Z,52.27
2022-09-26T06:51:03.820Z,52.14
2022-09-26T06:52:03.789Z,51.92
2022-09-26T06:53:03.779Z,51.07
2022-09-26T06:54:03.758Z,50.65
2022-09-26T06:55:03.751Z,50.52
2022-09-26T06:56:03.737Z,52.27
2022-09-26T06:57:03.722Z,51.64
2022-09-26T06:58:03.704Z,51.14
2022-09-26T06:59:03.694Z,52.07
2022-09-26T07:00:03.675Z,54.63
2022-09-26T07:01:03.804Z,57.75
2022-09-26T07:02:03.829Z,60.05
2022-09-26T07:03:03.640Z,61.47
2022-09-26T07:04:03.837Z,64.73
2022-09-26T07:05:03.618Z,67.42
2022-09-26T07:06:03.603Z,68.63
2022-09-26T07:07:03.672Z,69.91
2022-09-26T07:08:03.578Z,73.02
2022-09-26T07:09:06.562Z,74.41
2022-09-26T07:10:04.602Z,75.20
2022-09-26T07:11:28.258Z,76.18
2022-09-26T07:12:17.953Z,78.91
2022-09-26T07:13:04.566Z,80.51
2022-09-26T07:14:03.502Z,80.96
2022-09-26T07:15:03.483Z,82.01
2022-09-26T07:16:03.553Z,83.48
2022-09-26T07:17:03.461Z,85.06
2022-09-26T07:18:03.453Z,85.97
2022-09-26T07:19:03.434Z,88.12
2022-09-26T07:20:03.425Z,86.59
2022-09-26T07:21:03.406Z,85.20
2022-09-26T07:22:03.401Z,87.14
2022-09-26T07:23:03.417Z,90.00
2022-09-26T07:24:03.363Z,90.82
2022-09-26T07:25:03.351Z,90.86
2022-09-26T07:26:03.334Z,87.29
2022-09-26T07:27:03.322Z,85.89
2022-09-26T07:28:03.309Z,87.22
2022-09-26T07:29:03.294Z,90.30
2022-09-26T07:30:03.289Z,91.52
2022-09-26T07:31:03.330Z,92.55
2022-09-26T07:32:03.337Z,91.52
2022-09-26T07:33:03.247Z,89.98
2022-09-26T07:34:03.238Z,90.39
2022-09-26T07:35:03.215Z,89.58
2022-09-26T07:36:05.656Z,89.98
2022-09-26T07:37:03.194Z,89.98
2022-09-26T07:38:03.183Z,89.94
2022-09-26T07:39:03.191Z,89.43
2022-09-26T07:40:03.155Z,88.04
2022-09-26T07:41:03.199Z,88.35
2022-09-26T07:42:03.323Z,89.68
2022-09-26T07:43:19.676Z,91.38
2022-09-26T07:44:53.391Z,92.30
2022-09-26T07:46:04.103Z,91.69
2022-09-26T07:47:03.190Z,89.53
2022-09-26T07:48:03.062Z,91.48
2022-09-26T07:49:03.240Z,91.69
2022-09-26T07:50:03.021Z,90.15
2022-09-26T07:51:08.412Z,91.44
2022-09-26T07:52:04.229Z,90.00
2022-09-26T07:53:02.997Z,88.78
2022-09-26T07:54:02.970Z,88.37
2022-09-26T07:55:02.985Z,87.45
2022-09-26T07:56:02.943Z,86.83
2022-09-26T07:57:02.931Z,87.55
2022-09-26T07:58:03.112Z,88.06
2022-09-26T07:59:02.927Z,87.76
2022-09-26T08:00:02.891Z,88.26
2022-09-26T08:01:03.073Z,86.73
2022-09-26T08:02:03.029Z,87.04
2022-09-26T08:03:02.928Z,87.04
2022-09-26T08:04:02.849Z,87.04
2022-09-26T08:05:02.825Z,86.73
2022-09-26T08:06:02.815Z,84.89
2022-09-26T08:07:02.808Z,84.38
2022-09-26T08:08:02.793Z,85.81
2022-09-26T08:09:02.769Z,87.24
2022-09-26T08:10:02.767Z,87.85
2022-09-26T08:11:04.302Z,89.09
2022-09-26T08:12:02.728Z,89.29
2022-09-26T08:13:02.728Z,88.88
2022-09-26T08:14:02.709Z,87.76
2022-09-26T08:15:02.692Z,86.22
2022-09-26T08:16:02.765Z,86.53
2022-09-26T08:17:02.668Z,84.89
2022-09-26T08:18:02.681Z,84.99
2022-09-26T08:19:02.640Z,85.50
2022-09-26T08:20:02.630Z,85.30
2022-09-26T08:21:02.615Z,85.20
2022-09-26T08:22:02.598Z,83.25
2022-09-26T08:23:02.590Z,82.70
2022-09-26T08:24:02.621Z,86.59
2022-09-26T08:25:08.570Z,87.16
2022-09-26T08:26:02.552Z,83.69
2022-09-26T08:27:02.551Z,84.81
2022-09-26T08:28:02.520Z,85.53
2022-09-26T08:29:02.508Z,86.71
2022-09-26T08:30:02.496Z,85.89
2022-09-26T08:31:02.544Z,84.36
2022-09-26T08:32:02.467Z,82.93
2022-09-26T08:33:02.463Z,82.73
2022-09-26T08:34:02.449Z,82.01
2022-09-26T08:35:02.429Z,80.58
2022-09-26T08:36:02.420Z,82.22
2022-09-26T08:37:02.413Z,84.12
2022-09-26T08:38:02.394Z,82.79
2022-09-26T08:39:02.376Z,83.40
2022-09-26T08:40:02.362Z,83.20
2022-09-26T08:41:02.584Z,84.63
2022-09-26T08:42:02.337Z,82.49
2022-09-26T08:43:02.352Z,81.87
2022-09-26T08:44:02.314Z,81.71
2022-09-26T08:45:02.299Z,82.32
2022-09-26T08:46:02.410Z,80.89
2022-09-26T08:47:02.414Z,80.28
2022-09-26T08:48:02.265Z,81.77
2022-09-26T08:49:02.258Z,81.77
2022-09-26T08:50:02.242Z,82.28
2022-09-26T08:51:02.212Z,81.46
2022-09-26T08:52:02.400Z,79.63
2022-09-26T08:53:02.189Z,80.71
2022-09-26T08:54:02.177Z,78.77
2022-09-26T08:55:02.160Z,79.45
2022-09-26T08:56:02.154Z,80.68
2022-09-26T08:57:02.136Z,78.84
2022-09-26T08:58:02.120Z,78.02
2022-09-26T08:59:02.143Z,79.00
2022-09-26T09:00:02.098Z,78.80
2022-09-26T09:01:02.083Z,77.68
2022-09-26T09:02:02.170Z,76.76
2022-09-26T09:03:02.236Z,77.85
2022-09-26T09:04:02.045Z,78.36
2022-09-26T09:05:02.036Z,78.39
2022-09-26T09:06:02.019Z,76.87
2022-09-26T09:07:02.004Z,76.87
2022-09-26T09:08:02.005Z,77.85
2022-09-26T09:09:01.983Z,77.64
2022-09-26T09:10:01.965Z,77.03
2022-09-26T09:11:01.962Z,77.95
2022-09-26T09:12:01.944Z,74.69
2022-09-26T09:13:01.923Z,76.53
2022-09-26T09:14:02.126Z,78.53
2022-09-26T09:15:24.028Z,77.00
2022-09-26T09:16:03.001Z,74.65
2022-09-26T09:17:01.872Z,75.27
2022-09-26T09:18:02.071Z,73.64
2022-09-26T09:19:01.856Z,73.67
2022-09-26T09:20:02.038Z,72.96
2022-09-26T09:21:01.824Z,74.69
2022-09-26T09:22:01.801Z,74.42
2022-09-26T09:23:01.800Z,74.93
2022-09-26T09:24:01.788Z,75.07
2022-09-26T09:25:01.771Z,74.86
2022-09-26T09:28:07.965Z,75.16
2022-09-26T09:29:02.739Z,75.27
2022-09-26T09:30:01.689Z,76.76
2022-09-26T09:31:01.803Z,77.17
2022-09-26T09:32:01.673Z,74.42
2022-09-26T09:33:01.665Z,75.13
2022-09-26T09:34:01.648Z,75.74
2022-09-26T09:35:01.646Z,75.54
2022-09-26T09:36:01.622Z,74.45
2022-09-26T09:37:01.609Z,74.96
2022-09-26T09:38:01.596Z,76.19
2022-09-26T09:39:01.588Z,76.39
2022-09-26T09:40:01.574Z,74.55
2022-09-26T09:41:01.658Z,75.16
2022-09-26T09:42:01.546Z,75.23
2022-09-26T09:43:01.527Z,75.13
2022-09-26T09:44:01.511Z,75.71
2022-09-26T09:45:01.506Z,74.38
2022-09-26T09:46:01.611Z,73.77
2022-09-26T09:47:01.560Z,71.67
2022-09-26T09:48:01.456Z,71.77
2022-09-26T09:49:01.445Z,72.69
2022-09-26T09:50:01.436Z,72.99
2022-09-26T09:51:01.433Z,73.10
2022-09-26T09:52:01.414Z,73.10
2022-09-26T09:53:01.396Z,72.58
2022-09-26T09:54:01.392Z,73.88
2022-09-26T09:55:01.377Z,74.79
2022-09-26T09:56:01.363Z,72.65
2022-09-26T09:57:01.347Z,74.86
2022-09-26T09:58:01.335Z,74.86
2022-09-26T09:59:01.331Z,74.15
2022-09-26T10:00:02.406Z,72.99
2022-09-26T10:01:01.298Z,71.97
2022-09-26T10:02:01.280Z,71.36
2022-09-26T10:03:01.704Z,71.87
2022-09-26T10:04:01.259Z,69.73
2022-09-26T10:05:01.249Z,68.38
2022-09-26T10:06:01.230Z,68.07
2022-09-26T10:07:01.214Z,69.49
2022-09-26T10:08:01.206Z,68.18
2022-09-26T10:09:01.188Z,70.58
2022-09-26T10:10:02.206Z,71.80
2022-09-26T10:11:01.160Z,69.84
2022-09-26T10:12:01.151Z,68.11
2022-09-26T10:13:01.135Z,69.23
2022-09-26T10:14:01.124Z,67.60
2022-09-26T10:15:01.107Z,67.02
2022-09-26T10:16:01.198Z,68.48
2022-09-26T10:17:01.280Z,67.77
2022-09-26T10:18:23.510Z,68.92
2022-09-26T10:19:03.677Z,70.95
2022-09-26T10:20:01.047Z,71.06
2022-09-26T10:21:01.034Z,72.99
2022-09-26T10:22:01.019Z,69.63
2022-09-26T10:23:01.008Z,71.87
2022-09-26T10:24:01.000Z,72.58
2022-09-26T10:25:00.978Z,74.01
2022-09-26T10:26:00.968Z,70.45
2022-09-26T10:27:00.949Z,71.56
2022-09-26T10:28:00.954Z,71.47
2022-09-26T10:29:00.931Z,71.16
2022-09-26T10:30:00.914Z,71.77
2022-09-26T10:31:00.992Z,69.93
2022-09-26T10:32:00.892Z,71.56
2022-09-26T10:33:00.875Z,71.77
2022-09-26T10:34:00.862Z,71.36
2022-09-26T10:35:00.885Z,71.36
2022-09-26T10:36:00.840Z,69.56
2022-09-26T10:37:00.836Z,69.76
2022-09-26T10:38:01.007Z,70.89
2022-09-26T10:39:00.807Z,71.47
2022-09-26T10:40:00.783Z,71.97
2022-09-26T10:41:00.872Z,71.87
2022-09-26T10:42:00.760Z,68.92
2022-09-26T10:43:00.758Z,69.02
2022-09-26T10:44:00.732Z,69.93
2022-09-26T10:45:00.741Z,70.65
2022-09-26T10:46:00.779Z,70.45
2022-09-26T10:47:00.826Z,70.34
2022-09-26T10:48:00.680Z,71.06
2022-09-26T10:49:00.669Z,71.16
2022-09-26T10:50:00.656Z,70.28
2022-09-26T10:51:00.730Z,71.30
2022-09-26T10:52:01.463Z,72.31
2022-09-26T10:53:00.617Z,71.80
2022-09-26T10:54:00.615Z,72.82
2022-09-26T10:55:00.596Z,70.34
2022-09-26T10:56:00.581Z,71.36
2022-09-26T10:57:00.568Z,70.95
2022-09-26T10:58:00.553Z,71.64
2022-09-26T10:59:00.538Z,71.43
2022-09-26T11:00:00.531Z,69.19
2022-09-26T11:01:00.539Z,69.97
2022-09-26T11:02:00.603Z,72.01
2022-09-26T11:03:00.493Z,69.46
2022-09-26T11:04:00.538Z,64.89
2022-09-26T11:05:00.458Z,64.38
2022-09-26T11:06:00.468Z,66.31
2022-09-26T11:07:00.458Z,66.61
2022-09-26T11:08:00.434Z,68.35
2022-09-26T11:09:00.415Z,67.63
2022-09-26T11:10:00.400Z,65.09
2022-09-26T11:11:00.390Z,66.85
2022-09-26T11:12:00.377Z,65.73
2022-09-26T11:13:00.359Z,67.77
2022-09-26T11:14:00.354Z,71.02
2022-09-26T11:15:00.336Z,71.12
2022-09-26T11:16:00.408Z,71.33
2022-09-26T11:17:00.307Z,73.87
2022-09-26T11:18:00.300Z,76.42
2022-09-26T11:19:00.288Z,75.30
2022-09-26T11:20:00.267Z,75.91
2022-09-26T11:21:00.264Z,78.72
2022-09-26T11:22:03.179Z,76.79
2022-09-26T11:23:00.928Z,72.82
2022-09-26T11:24:00.219Z,72.21
2022-09-26T11:25:00.222Z,73.33
2022-09-26T11:26:00.192Z,75.57
2022-09-26T11:27:00.182Z,75.67
2022-09-26T11:28:00.167Z,73.54
2022-09-26T11:29:00.150Z,71.91
2022-09-26T11:30:00.148Z,71.50
2022-09-26T11:31:00.228Z,72.82
2022-09-26T11:32:00.477Z,72.21
2022-09-26T11:33:00.107Z,73.60
2022-09-26T11:34:00.099Z,70.18
2022-09-26T11:35:00.085Z,70.89
2022-09-26T11:36:00.056Z,68.85
2022-09-26T11:37:00.050Z,71.02
2022-09-26T11:38:00.034Z,71.94
2022-09-26T11:39:00.061Z,71.94
2022-09-26T11:40:00.009Z,73.67
2022-09-26T11:41:00.120Z,71.73
2022-09-26T11:41:59.989Z,70.31
2022-09-26T11:42:59.968Z,71.12
2022-09-26T11:43:59.963Z,72.65
2022-09-26T11:44:59.942Z,70.92
2022-09-26T11:45:59.980Z,73.26
2022-09-26T11:46:59.917Z,72.65
2022-09-26T11:47:59.916Z,71.02
2022-09-26T11:48:59.894Z,70.21
2022-09-26T11:49:59.875Z,69.70
2022-09-26T11:50:59.878Z,69.19
2022-09-26T11:51:59.863Z,70.28
2022-09-26T11:52:59.838Z,69.57
2022-09-26T11:53:59.831Z,71.30
2022-09-26T11:54:59.838Z,69.97
2022-09-26T11:55:59.801Z,70.75
2022-09-26T11:56:59.791Z,71.47
2022-09-26T11:58:03.186Z,71.03
2022-09-26T11:58:59.763Z,69.20
2022-09-26T11:59:59.751Z,70.01
2022-09-26T12:00:59.764Z,71.33
2022-09-26T12:01:59.732Z,72.31
2022-09-26T12:02:59.901Z,71.40
2022-09-26T12:03:59.865Z,67.44
2022-09-26T12:04:59.686Z,65.51
2022-09-26T12:05:59.870Z,66.83
2022-09-26T12:06:59.663Z,65.30
2022-09-26T12:07:59.836Z,66.05
2022-09-26T12:08:59.634Z,65.64
2022-09-26T12:09:59.619Z,67.40
2022-09-26T12:10:59.632Z,68.62
2022-09-26T12:11:59.595Z,70.75
2022-09-26T12:12:59.583Z,70.82
2022-09-26T12:13:59.565Z,69.09
2022-09-26T12:14:59.557Z,67.97
2022-09-26T12:15:59.594Z,67.57
2022-09-26T12:16:59.525Z,67.67
2022-09-26T12:17:59.532Z,67.77
2022-09-26T12:18:59.544Z,68.15
2022-09-26T12:19:59.487Z,65.81
2022-09-26T12:20:59.475Z,65.20
2022-09-26T12:21:59.457Z,63.81
2022-09-26T12:22:59.447Z,64.01
2022-09-26T12:23:59.438Z,64.62
2022-09-26T12:24:59.426Z,63.60
2022-09-26T12:25:59.409Z,62.82
2022-09-26T12:26:59.461Z,62.72
2022-09-26T12:27:59.387Z,63.13
2022-09-26T12:28:59.375Z,63.77
2022-09-26T12:29:59.356Z,65.30
2022-09-26T12:30:59.595Z,65.19
2022-09-26T12:31:59.332Z,64.99
2022-09-26T12:32:59.328Z,65.30
2022-09-26T12:33:59.323Z,67.02
2022-09-26T12:34:59.294Z,67.43
2022-09-26T12:35:59.288Z,67.83
2022-09-26T12:36:59.283Z,67.83
2022-09-26T12:37:59.653Z,67.30
2022-09-26T12:38:59.244Z,66.08
2022-09-26T12:39:59.236Z,67.77
2022-09-26T12:40:59.457Z,64.42
2022-09-26T12:41:59.204Z,64.42
2022-09-26T12:42:59.217Z,67.03
2022-09-26T12:43:59.174Z,66.60
2022-09-26T12:44:59.163Z,63.85
2022-09-26T12:45:59.217Z,64.26
2022-09-26T12:46:59.209Z,63.55
2022-09-26T12:47:59.126Z,63.34
2022-09-26T12:48:59.115Z,62.56
2022-09-26T12:49:59.098Z,62.76
2022-09-26T12:50:59.092Z,62.90
2022-09-26T12:51:59.070Z,62.49
2022-09-26T12:52:59.059Z,63.33
2022-09-26T12:53:59.050Z,63.84
2022-09-26T12:54:59.037Z,65.26